sensor_id;sensor_type;location;lat;lon;timestamp;P1;durP1;ratioP1;P2;durP2;ratioP2
65533;SDS011;53640;55.838;37.184;2023-07-31T00:01:52;7.93;;;3.45;;
65533;SDS011;53640;55.838;37.184;2023-07-31T00:04:18;4.80;;;2.72;;
65533;SDS011;53640;55.838;37.184;2023-07-31T00:06:44;4.05;;;2.75;;
65533;SDS011;53640;55.838;37.184;2023-07-31T00:09:11;11.70;;;3.40;;
65533;SDS011;53640;55.838;37.184;2023-07-31T00:11:37;7.28;;;3.65;;
65533;SDS011;53640;55.838;37.184;2023-07-31T00:14:04;8.80;;;4.15;;
65533;SDS011;53640;55.838;37.184;2023-07-31T00:16:32;8.05;;;3.83;;
65533;SDS011;53640;55.838;37.184;2023-07-31T00:18:58;7.93;;;3.47;;
65533;SDS011;53640;55.838;37.184;2023-07-31T00:21:25;4.88;;;2.83;;
65533;SDS011;53640;55.838;37.184;2023-07-31T00:23:51;3.47;;;2.58;;
65533;SDS011;53640;55.838;37.184;2023-07-31T00:26:17;4.65;;;3.28;;
65533;SDS011;53640;55.838;37.184;2023-07-31T00:28:44;4.75;;;2.75;;
65533;SDS011;53640;55.838;37.184;2023-07-31T00:31:10;4.47;;;2.33;;
65533;SDS011;53640;55.838;37.184;2023-07-31T00:33:37;4.38;;;2.38;;
65533;SDS011;53640;55.838;37.184;2023-07-31T00:36:04;3.50;;;2.60;;
65533;SDS011;53640;55.838;37.184;2023-07-31T00:38:30;5.38;;;2.53;;
65533;SDS011;53640;55.838;37.184;2023-07-31T00:40:57;3.53;;;2.85;;
65533;SDS011;53640;55.838;37.184;2023-07-31T00:43:24;6.90;;;2.78;;
65533;SDS011;53640;55.838;37.184;2023-07-31T00:45:51;8.73;;;3.58;;
65533;SDS011;53640;55.838;37.184;2023-07-31T00:48:18;6.50;;;3.10;;
65533;SDS011;53640;55.838;37.184;2023-07-31T00:50:44;4.80;;;2.92;;
65533;SDS011;53640;55.838;37.184;2023-07-31T00:53:11;7.30;;;3.13;;
65533;SDS011;53640;55.838;37.184;2023-07-31T00:55:39;3.90;;;3.15;;
65533;SDS011;53640;55.838;37.184;2023-07-31T00:58:06;3.25;;;2.30;;
65533;SDS011;53640;55.838;37.184;2023-07-31T01:00:33;4.57;;;2.47;;
65533;SDS011;53640;55.838;37.184;2023-07-31T01:03:00;4.18;;;2.70;;
65533;SDS011;53640;55.838;37.184;2023-07-31T01:05:39;4.18;;;2.20;;
65533;SDS011;53640;55.838;37.184;2023-07-31T01:10:49;5.22;;;2.45;;
65533;SDS011;53640;55.838;37.184;2023-07-31T01:13:26;5.13;;;2.60;;
65533;SDS011;53640;55.838;37.184;2023-07-31T01:15:52;7.47;;;2.78;;
65533;SDS011;53640;55.838;37.184;2023-07-31T01:18:20;5.45;;;2.35;;
65533;SDS011;53640;55.838;37.184;2023-07-31T01:20:48;4.97;;;2.42;;
65533;SDS011;53640;55.838;37.184;2023-07-31T01:26:12;4.63;;;2.55;;
65533;SDS011;53640;55.838;37.184;2023-07-31T01:31:33;6.60;;;2.42;;
65533;SDS011;53640;55.838;37.184;2023-07-31T01:34:01;4.40;;;2.03;;
65533;SDS011;53640;55.838;37.184;2023-07-31T01:36:28;4.25;;;2.65;;
65533;SDS011;53640;55.838;37.184;2023-07-31T01:38:59;8.65;;;3.70;;
65533;SDS011;53640;55.838;37.184;2023-07-31T01:41:27;11.30;;;4.28;;
65533;SDS011;53640;55.838;37.184;2023-07-31T01:43:54;12.02;;;4.28;;
65533;SDS011;53640;55.838;37.184;2023-07-31T01:46:20;12.95;;;4.60;;
65533;SDS011;53640;55.838;37.184;2023-07-31T01:48:46;9.27;;;3.90;;
65533;SDS011;53640;55.838;37.184;2023-07-31T01:51:13;10.75;;;4.15;;
65533;SDS011;53640;55.838;37.184;2023-07-31T01:53:39;10.13;;;3.78;;
65533;SDS011;53640;55.838;37.184;2023-07-31T01:56:06;9.98;;;3.63;;
65533;SDS011;53640;55.838;37.184;2023-07-31T01:58:33;15.07;;;3.50;;
65533;SDS011;53640;55.838;37.184;2023-07-31T02:01:00;6.80;;;3.20;;
65533;SDS011;53640;55.838;37.184;2023-07-31T02:03:26;8.90;;;3.38;;
65533;SDS011;53640;55.838;37.184;2023-07-31T02:05:53;7.50;;;3.97;;
65533;SDS011;53640;55.838;37.184;2023-07-31T02:08:20;8.88;;;3.97;;
65533;SDS011;53640;55.838;37.184;2023-07-31T02:10:47;8.80;;;3.80;;
65533;SDS011;53640;55.838;37.184;2023-07-31T02:13:13;11.02;;;4.05;;
65533;SDS011;53640;55.838;37.184;2023-07-31T02:15:39;11.77;;;4.50;;
65533;SDS011;53640;55.838;37.184;2023-07-31T02:18:06;11.70;;;4.28;;
65533;SDS011;53640;55.838;37.184;2023-07-31T02:20:34;9.98;;;4.30;;
65533;SDS011;53640;55.838;37.184;2023-07-31T02:23:02;5.40;;;3.03;;
65533;SDS011;53640;55.838;37.184;2023-07-31T02:25:30;5.93;;;3.10;;
65533;SDS011;53640;55.838;37.184;2023-07-31T02:27:57;8.20;;;3.63;;
65533;SDS011;53640;55.838;37.184;2023-07-31T02:30:25;9.65;;;2.97;;
65533;SDS011;53640;55.838;37.184;2023-07-31T02:32:52;11.52;;;3.40;;
65533;SDS011;53640;55.838;37.184;2023-07-31T02:35:19;5.70;;;3.50;;
65533;SDS011;53640;55.838;37.184;2023-07-31T02:37:46;10.05;;;3.10;;
65533;SDS011;53640;55.838;37.184;2023-07-31T02:40:13;7.13;;;3.03;;
65533;SDS011;53640;55.838;37.184;2023-07-31T02:42:39;10.00;;;3.17;;
65533;SDS011;53640;55.838;37.184;2023-07-31T02:45:07;6.30;;;3.47;;
65533;SDS011;53640;55.838;37.184;2023-07-31T02:47:34;5.18;;;3.22;;
65533;SDS011;53640;55.838;37.184;2023-07-31T02:50:02;8.25;;;3.22;;
65533;SDS011;53640;55.838;37.184;2023-07-31T02:52:30;6.38;;;3.10;;
65533;SDS011;53640;55.838;37.184;2023-07-31T02:54:57;4.25;;;2.83;;
65533;SDS011;53640;55.838;37.184;2023-07-31T02:57:24;4.63;;;2.90;;
65533;SDS011;53640;55.838;37.184;2023-07-31T02:59:50;3.40;;;2.67;;
65533;SDS011;53640;55.838;37.184;2023-07-31T03:02:16;7.47;;;3.30;;
65533;SDS011;53640;55.838;37.184;2023-07-31T03:04:43;5.65;;;3.28;;
65533;SDS011;53640;55.838;37.184;2023-07-31T03:07:09;3.97;;;2.60;;
65533;SDS011;53640;55.838;37.184;2023-07-31T03:09:36;6.75;;;3.00;;
65533;SDS011;53640;55.838;37.184;2023-07-31T03:12:02;6.80;;;3.25;;
65533;SDS011;53640;55.838;37.184;2023-07-31T03:14:29;3.75;;;3.05;;
65533;SDS011;53640;55.838;37.184;2023-07-31T03:16:55;5.32;;;3.20;;
65533;SDS011;53640;55.838;37.184;2023-07-31T03:19:22;5.45;;;2.88;;
65533;SDS011;53640;55.838;37.184;2023-07-31T03:21:49;5.05;;;3.22;;
65533;SDS011;53640;55.838;37.184;2023-07-31T03:24:16;4.93;;;3.28;;
65533;SDS011;53640;55.838;37.184;2023-07-31T03:26:42;5.40;;;3.55;;
65533;SDS011;53640;55.838;37.184;2023-07-31T03:29:09;4.20;;;3.10;;
65533;SDS011;53640;55.838;37.184;2023-07-31T03:31:35;6.10;;;2.63;;
65533;SDS011;53640;55.838;37.184;2023-07-31T03:34:01;3.17;;;2.38;;
65533;SDS011;53640;55.838;37.184;2023-07-31T03:36:29;6.35;;;2.88;;
65533;SDS011;53640;55.838;37.184;2023-07-31T03:38:56;5.65;;;3.05;;
65533;SDS011;53640;55.838;37.184;2023-07-31T03:41:22;6.07;;;2.90;;
65533;SDS011;53640;55.838;37.184;2023-07-31T03:43:49;6.78;;;3.20;;
65533;SDS011;53640;55.838;37.184;2023-07-31T03:46:23;13.73;;;3.58;;
65533;SDS011;53640;55.838;37.184;2023-07-31T03:48:50;3.80;;;2.72;;
65533;SDS011;53640;55.838;37.184;2023-07-31T03:51:17;2.95;;;2.40;;
65533;SDS011;53640;55.838;37.184;2023-07-31T03:53:44;5.22;;;2.78;;
65533;SDS011;53640;55.838;37.184;2023-07-31T03:56:11;3.30;;;2.40;;
65533;SDS011;53640;55.838;37.184;2023-07-31T03:58:38;2.55;;;2.20;;
65533;SDS011;53640;55.838;37.184;2023-07-31T04:01:04;2.47;;;2.10;;
65533;SDS011;53640;55.838;37.184;2023-07-31T04:03:30;1.98;;;1.77;;
65533;SDS011;53640;55.838;37.184;2023-07-31T04:05:57;2.50;;;2.08;;
65533;SDS011;53640;55.838;37.184;2023-07-31T04:08:23;2.55;;;1.90;;
65533;SDS011;53640;55.838;37.184;2023-07-31T04:10:50;5.53;;;2.40;;
65533;SDS011;53640;55.838;37.184;2023-07-31T04:13:16;3.60;;;2.30;;
65533;SDS011;53640;55.838;37.184;2023-07-31T04:15:43;2.72;;;2.10;;
65533;SDS011;53640;55.838;37.184;2023-07-31T04:18:15;3.65;;;2.10;;
65533;SDS011;53640;55.838;37.184;2023-07-31T04:20:41;4.65;;;2.35;;
65533;SDS011;53640;55.838;37.184;2023-07-31T04:23:07;3.30;;;2.45;;
65533;SDS011;53640;55.838;37.184;2023-07-31T04:25:34;3.95;;;2.30;;
65533;SDS011;53640;55.838;37.184;2023-07-31T04:28:01;3.78;;;2.25;;
65533;SDS011;53640;55.838;37.184;2023-07-31T04:30:27;3.75;;;2.40;;
65533;SDS011;53640;55.838;37.184;2023-07-31T04:32:54;5.82;;;3.03;;
65533;SDS011;53640;55.838;37.184;2023-07-31T04:35:20;3.92;;;2.25;;
65533;SDS011;53640;55.838;37.184;2023-07-31T04:37:46;2.20;;;2.00;;
65533;SDS011;53640;55.838;37.184;2023-07-31T04:40:15;3.92;;;2.20;;
65533;SDS011;53640;55.838;37.184;2023-07-31T04:42:42;2.35;;;2.03;;
65533;SDS011;53640;55.838;37.184;2023-07-31T04:45:08;2.58;;;1.90;;
65533;SDS011;53640;55.838;37.184;2023-07-31T04:47:35;2.05;;;1.65;;
65533;SDS011;53640;55.838;37.184;2023-07-31T04:50:01;2.25;;;1.70;;
65533;SDS011;53640;55.838;37.184;2023-07-31T04:52:29;1.90;;;1.70;;
65533;SDS011;53640;55.838;37.184;2023-07-31T04:54:55;2.53;;;1.90;;
65533;SDS011;53640;55.838;37.184;2023-07-31T04:57:23;3.03;;;1.90;;
65533;SDS011;53640;55.838;37.184;2023-07-31T04:59:49;2.08;;;1.85;;
65533;SDS011;53640;55.838;37.184;2023-07-31T05:02:16;2.50;;;2.20;;
65533;SDS011;53640;55.838;37.184;2023-07-31T05:04:42;2.50;;;1.70;;
65533;SDS011;53640;55.838;37.184;2023-07-31T05:07:10;1.83;;;1.52;;
65533;SDS011;53640;55.838;37.184;2023-07-31T05:09:36;1.55;;;1.40;;
65533;SDS011;53640;55.838;37.184;2023-07-31T05:12:04;4.28;;;1.60;;
65533;SDS011;53640;55.838;37.184;2023-07-31T05:14:32;3.30;;;1.80;;
65533;SDS011;53640;55.838;37.184;2023-07-31T05:16:58;2.90;;;1.70;;
65533;SDS011;53640;55.838;37.184;2023-07-31T05:19:26;1.83;;;1.70;;
65533;SDS011;53640;55.838;37.184;2023-07-31T05:21:52;1.77;;;1.63;;
65533;SDS011;53640;55.838;37.184;2023-07-31T05:24:19;2.03;;;1.85;;
65533;SDS011;53640;55.838;37.184;2023-07-31T05:26:45;4.68;;;2.40;;
65533;SDS011;53640;55.838;37.184;2023-07-31T05:29:13;2.65;;;1.75;;
65533;SDS011;53640;55.838;37.184;2023-07-31T05:31:42;4.35;;;2.00;;
65533;SDS011;53640;55.838;37.184;2023-07-31T05:34:10;3.40;;;1.98;;
65533;SDS011;53640;55.838;37.184;2023-07-31T05:36:36;1.92;;;1.63;;
65533;SDS011;53640;55.838;37.184;2023-07-31T05:39:02;3.22;;;1.83;;
65533;SDS011;53640;55.838;37.184;2023-07-31T05:41:34;2.45;;;1.70;;
65533;SDS011;53640;55.838;37.184;2023-07-31T05:44:03;3.08;;;2.22;;
65533;SDS011;53640;55.838;37.184;2023-07-31T05:46:29;5.40;;;1.80;;
65533;SDS011;53640;55.838;37.184;2023-07-31T05:48:57;2.15;;;1.40;;
65533;SDS011;53640;55.838;37.184;2023-07-31T05:51:23;7.03;;;1.95;;
65533;SDS011;53640;55.838;37.184;2023-07-31T05:53:50;4.22;;;1.90;;
65533;SDS011;53640;55.838;37.184;2023-07-31T05:56:17;1.83;;;1.33;;
65533;SDS011;53640;55.838;37.184;2023-07-31T05:58:43;1.73;;;1.48;;
65533;SDS011;53640;55.838;37.184;2023-07-31T06:01:10;3.13;;;1.70;;
65533;SDS011;53640;55.838;37.184;2023-07-31T06:03:36;4.15;;;1.70;;
65533;SDS011;53640;55.838;37.184;2023-07-31T06:06:03;2.00;;;1.58;;
65533;SDS011;53640;55.838;37.184;2023-07-31T06:08:29;3.40;;;1.70;;
65533;SDS011;53640;55.838;37.184;2023-07-31T06:10:56;5.28;;;2.00;;
65533;SDS011;53640;55.838;37.184;2023-07-31T06:13:23;3.65;;;1.70;;
65533;SDS011;53640;55.838;37.184;2023-07-31T06:15:50;2.35;;;1.50;;
65533;SDS011;53640;55.838;37.184;2023-07-31T06:18:17;2.95;;;1.50;;
65533;SDS011;53640;55.838;37.184;2023-07-31T06:20:43;3.47;;;2.03;;
65533;SDS011;53640;55.838;37.184;2023-07-31T06:23:10;2.33;;;1.25;;
65533;SDS011;53640;55.838;37.184;2023-07-31T06:25:36;3.53;;;1.65;;
65533;SDS011;53640;55.838;37.184;2023-07-31T06:28:04;1.40;;;1.30;;
65533;SDS011;53640;55.838;37.184;2023-07-31T06:30:30;2.47;;;1.45;;
65533;SDS011;53640;55.838;37.184;2023-07-31T06:32:58;1.85;;;1.20;;
65533;SDS011;53640;55.838;37.184;2023-07-31T06:35:24;1.23;;;1.20;;
65533;SDS011;53640;55.838;37.184;2023-07-31T06:37:53;3.75;;;1.30;;
65533;SDS011;53640;55.838;37.184;2023-07-31T06:40:20;1.50;;;1.40;;
65533;SDS011;53640;55.838;37.184;2023-07-31T06:42:48;2.60;;;1.27;;
65533;SDS011;53640;55.838;37.184;2023-07-31T06:45:15;1.92;;;1.40;;
65533;SDS011;53640;55.838;37.184;2023-07-31T06:47:43;2.15;;;1.30;;
65533;SDS011;53640;55.838;37.184;2023-07-31T06:50:09;2.97;;;1.55;;
65533;SDS011;53640;55.838;37.184;2023-07-31T06:52:36;2.65;;;1.35;;
65533;SDS011;53640;55.838;37.184;2023-07-31T06:55:21;0.80;;;0.80;;
65533;SDS011;53640;55.838;37.184;2023-07-31T06:57:48;1.63;;;1.20;;
65533;SDS011;53640;55.838;37.184;2023-07-31T07:00:17;3.83;;;1.50;;
65533;SDS011;53640;55.838;37.184;2023-07-31T07:02:44;1.70;;;1.30;;
65533;SDS011;53640;55.838;37.184;2023-07-31T07:05:10;2.45;;;0.98;;
65533;SDS011;53640;55.838;37.184;2023-07-31T07:07:37;1.83;;;0.90;;
65533;SDS011;53640;55.838;37.184;2023-07-31T07:10:04;1.92;;;1.10;;
65533;SDS011;53640;55.838;37.184;2023-07-31T07:12:32;1.00;;;1.00;;
65533;SDS011;53640;55.838;37.184;2023-07-31T07:14:59;1.20;;;1.10;;
65533;SDS011;53640;55.838;37.184;2023-07-31T07:17:27;1.15;;;1.05;;
65533;SDS011;53640;55.838;37.184;2023-07-31T07:20:00;1.85;;;1.02;;
65533;SDS011;53640;55.838;37.184;2023-07-31T07:22:26;2.95;;;1.60;;
65533;SDS011;53640;55.838;37.184;2023-07-31T07:24:53;2.03;;;1.05;;
65533;SDS011;53640;55.838;37.184;2023-07-31T07:27:22;1.00;;;1.00;;
65533;SDS011;53640;55.838;37.184;2023-07-31T07:29:49;3.55;;;1.05;;
65533;SDS011;53640;55.838;37.184;2023-07-31T07:32:19;1.50;;;1.40;;
65533;SDS011;53640;55.838;37.184;2023-07-31T07:34:47;1.77;;;1.67;;
65533;SDS011;53640;55.838;37.184;2023-07-31T07:37:15;3.03;;;1.80;;
65533;SDS011;53640;55.838;37.184;2023-07-31T07:39:41;2.10;;;1.23;;
65533;SDS011;53640;55.838;37.184;2023-07-31T07:42:08;1.67;;;1.15;;
65533;SDS011;53640;55.838;37.184;2023-07-31T07:44:34;1.30;;;1.20;;
65533;SDS011;53640;55.838;37.184;2023-07-31T07:47:01;1.20;;;1.20;;
65533;SDS011;53640;55.838;37.184;2023-07-31T07:49:28;2.10;;;1.40;;
65533;SDS011;53640;55.838;37.184;2023-07-31T07:51:54;2.03;;;1.42;;
65533;SDS011;53640;55.838;37.184;2023-07-31T07:54:20;1.30;;;1.20;;
65533;SDS011;53640;55.838;37.184;2023-07-31T07:56:47;1.23;;;1.10;;
65533;SDS011;53640;55.838;37.184;2023-07-31T07:59:14;7.90;;;1.58;;
65533;SDS011;53640;55.838;37.184;2023-07-31T08:01:40;1.60;;;1.27;;
65533;SDS011;53640;55.838;37.184;2023-07-31T08:04:08;2.20;;;1.30;;
65533;SDS011;53640;55.838;37.184;2023-07-31T08:06:38;1.67;;;1.30;;
65533;SDS011;53640;55.838;37.184;2023-07-31T08:09:04;1.90;;;1.40;;
65533;SDS011;53640;55.838;37.184;2023-07-31T08:11:32;1.60;;;1.50;;
65533;SDS011;53640;55.838;37.184;2023-07-31T08:13:59;1.58;;;1.33;;
65533;SDS011;53640;55.838;37.184;2023-07-31T08:16:27;1.42;;;1.33;;
65533;SDS011;53640;55.838;37.184;2023-07-31T08:18:53;1.52;;;1.42;;
65533;SDS011;53640;55.838;37.184;2023-07-31T08:21:21;1.40;;;1.30;;
65533;SDS011;53640;55.838;37.184;2023-07-31T08:23:47;1.50;;;1.20;;
65533;SDS011;53640;55.838;37.184;2023-07-31T08:26:14;2.20;;;1.88;;
65533;SDS011;53640;55.838;37.184;2023-07-31T08:28:42;2.55;;;1.58;;
65533;SDS011;53640;55.838;37.184;2023-07-31T08:31:09;2.70;;;1.50;;
65533;SDS011;53640;55.838;37.184;2023-07-31T08:33:37;4.20;;;1.60;;
65533;SDS011;53640;55.838;37.184;2023-07-31T08:36:04;2.65;;;1.80;;
65533;SDS011;53640;55.838;37.184;2023-07-31T08:38:31;4.95;;;1.90;;
65533;SDS011;53640;55.838;37.184;2023-07-31T08:44:54;1.60;;;1.50;;
65533;SDS011;53640;55.838;37.184;2023-07-31T08:47:23;3.88;;;1.42;;
65533;SDS011;53640;55.838;37.184;2023-07-31T08:49:52;2.40;;;1.52;;
65533;SDS011;53640;55.838;37.184;2023-07-31T08:52:22;1.83;;;1.73;;
65533;SDS011;53640;55.838;37.184;2023-07-31T08:54:48;3.25;;;2.00;;
65533;SDS011;53640;55.838;37.184;2023-07-31T08:57:15;3.25;;;1.40;;
65533;SDS011;53640;55.838;37.184;2023-07-31T08:59:42;2.65;;;1.30;;
65533;SDS011;53640;55.838;37.184;2023-07-31T09:02:09;1.42;;;1.33;;
65533;SDS011;53640;55.838;37.184;2023-07-31T09:04:37;1.20;;;1.20;;
65533;SDS011;53640;55.838;37.184;2023-07-31T09:07:04;3.08;;;1.70;;
65533;SDS011;53640;55.838;37.184;2023-07-31T09:09:31;1.92;;;1.48;;
65533;SDS011;53640;55.838;37.184;2023-07-31T09:12:01;2.83;;;1.52;;
65533;SDS011;53640;55.838;37.184;2023-07-31T09:14:38;1.45;;;1.25;;
65533;SDS011;53640;55.838;37.184;2023-07-31T09:17:06;1.70;;;1.50;;
65533;SDS011;53640;55.838;37.184;2023-07-31T09:19:34;2.03;;;1.75;;
65533;SDS011;53640;55.838;37.184;2023-07-31T09:22:05;2.88;;;1.70;;
65533;SDS011;53640;55.838;37.184;2023-07-31T09:24:32;1.33;;;1.27;;
65533;SDS011;53640;55.838;37.184;2023-07-31T09:27:01;1.35;;;1.25;;
65533;SDS011;53640;55.838;37.184;2023-07-31T09:29:28;1.70;;;1.60;;
65533;SDS011;53640;55.838;37.184;2023-07-31T09:31:55;3.10;;;1.50;;
65533;SDS011;53640;55.838;37.184;2023-07-31T09:34:29;1.52;;;1.42;;
65533;SDS011;53640;55.838;37.184;2023-07-31T09:37:02;1.30;;;1.30;;
65533;SDS011;53640;55.838;37.184;2023-07-31T09:39:33;2.03;;;1.30;;
65533;SDS011;53640;55.838;37.184;2023-07-31T09:42:12;1.75;;;1.60;;
65533;SDS011;53640;55.838;37.184;2023-07-31T09:44:39;1.50;;;1.40;;
65533;SDS011;53640;55.838;37.184;2023-07-31T09:47:29;1.35;;;1.30;;
65533;SDS011;53640;55.838;37.184;2023-07-31T09:49:56;1.25;;;1.23;;
65533;SDS011;53640;55.838;37.184;2023-07-31T09:52:23;2.45;;;1.50;;
65533;SDS011;53640;55.838;37.184;2023-07-31T09:54:52;1.70;;;1.60;;
65533;SDS011;53640;55.838;37.184;2023-07-31T09:57:18;1.25;;;1.25;;
65533;SDS011;53640;55.838;37.184;2023-07-31T09:59:48;1.70;;;1.60;;
65533;SDS011;53640;55.838;37.184;2023-07-31T10:02:21;3.00;;;1.75;;
65533;SDS011;53640;55.838;37.184;2023-07-31T10:04:51;3.45;;;1.60;;
65533;SDS011;53640;55.838;37.184;2023-07-31T10:07:22;2.38;;;1.42;;
65533;SDS011;53640;55.838;37.184;2023-07-31T10:09:51;2.33;;;1.67;;
65533;SDS011;53640;55.838;37.184;2023-07-31T10:12:20;4.22;;;1.60;;
65533;SDS011;53640;55.838;37.184;2023-07-31T10:14:51;3.30;;;1.30;;
65533;SDS011;53640;55.838;37.184;2023-07-31T10:17:24;1.52;;;1.42;;
65533;SDS011;53640;55.838;37.184;2023-07-31T10:19:52;1.70;;;1.60;;
65533;SDS011;53640;55.838;37.184;2023-07-31T10:22:20;1.50;;;1.40;;
65533;SDS011;53640;55.838;37.184;2023-07-31T10:24:47;1.65;;;1.55;;
65533;SDS011;53640;55.838;37.184;2023-07-31T10:27:14;3.10;;;1.58;;
65533;SDS011;53640;55.838;37.184;2023-07-31T10:29:41;1.77;;;1.30;;
65533;SDS011;53640;55.838;37.184;2023-07-31T10:32:10;2.45;;;1.60;;
65533;SDS011;53640;55.838;37.184;2023-07-31T10:34:38;1.45;;;1.35;;
65533;SDS011;53640;55.838;37.184;2023-07-31T10:37:22;2.40;;;1.30;;
65533;SDS011;53640;55.838;37.184;2023-07-31T10:39:56;2.00;;;1.23;;
65533;SDS011;53640;55.838;37.184;2023-07-31T10:42:30;2.45;;;1.30;;
65533;SDS011;53640;55.838;37.184;2023-07-31T10:44:58;2.10;;;1.80;;
65533;SDS011;53640;55.838;37.184;2023-07-31T10:47:26;4.82;;;1.80;;
65533;SDS011;53640;55.838;37.184;2023-07-31T10:49:53;4.07;;;1.88;;
65533;SDS011;53640;55.838;37.184;2023-07-31T10:52:38;4.00;;;3.40;;
65533;SDS011;53640;55.838;37.184;2023-07-31T10:55:14;2.03;;;1.90;;
65533;SDS011;53640;55.838;37.184;2023-07-31T10:57:44;1.73;;;1.58;;
65533;SDS011;53640;55.838;37.184;2023-07-31T11:00:29;1.60;;;1.50;;
65533;SDS011;53640;55.838;37.184;2023-07-31T11:03:25;1.92;;;1.70;;
65533;SDS011;53640;55.838;37.184;2023-07-31T11:05:54;1.80;;;1.70;;
65533;SDS011;53640;55.838;37.184;2023-07-31T11:08:32;2.70;;;1.60;;
65533;SDS011;53640;55.838;37.184;2023-07-31T11:13:39;5.97;;;1.73;;
65533;SDS011;53640;55.838;37.184;2023-07-31T11:16:07;1.67;;;1.58;;
65533;SDS011;53640;55.838;37.184;2023-07-31T11:18:34;1.40;;;1.30;;
65533;SDS011;53640;55.838;37.184;2023-07-31T11:21:01;4.63;;;1.92;;
65533;SDS011;53640;55.838;37.184;2023-07-31T11:23:30;2.65;;;1.80;;
65533;SDS011;53640;55.838;37.184;2023-07-31T11:25:59;1.50;;;1.40;;
65533;SDS011;53640;55.838;37.184;2023-07-31T11:28:26;3.35;;;1.58;;
65533;SDS011;53640;55.838;37.184;2023-07-31T11:30:59;4.40;;;1.73;;
65533;SDS011;53640;55.838;37.184;2023-07-31T11:33:27;2.28;;;1.80;;
65533;SDS011;53640;55.838;37.184;2023-07-31T11:35:53;2.30;;;1.40;;
65533;SDS011;53640;55.838;37.184;2023-07-31T11:38:27;2.05;;;1.73;;
65533;SDS011;53640;55.838;37.184;2023-07-31T11:41:00;1.92;;;1.70;;
65533;SDS011;53640;55.838;37.184;2023-07-31T11:43:30;1.60;;;1.50;;
65533;SDS011;53640;55.838;37.184;2023-07-31T11:45:58;1.77;;;1.65;;
65533;SDS011;53640;55.838;37.184;2023-07-31T11:48:27;1.80;;;1.70;;
65533;SDS011;53640;55.838;37.184;2023-07-31T11:51:02;5.55;;;1.80;;
65533;SDS011;53640;55.838;37.184;2023-07-31T11:56:04;1.60;;;1.50;;
65533;SDS011;53640;55.838;37.184;2023-07-31T11:58:32;2.35;;;1.70;;
65533;SDS011;53640;55.838;37.184;2023-07-31T12:01:01;1.80;;;1.70;;
65533;SDS011;53640;55.838;37.184;2023-07-31T12:03:28;2.78;;;2.42;;
65533;SDS011;53640;55.838;37.184;2023-07-31T12:05:55;2.17;;;1.90;;
65533;SDS011;53640;55.838;37.184;2023-07-31T12:08:22;3.30;;;2.50;;
65533;SDS011;53640;55.838;37.184;2023-07-31T12:10:50;3.35;;;2.28;;
65533;SDS011;53640;55.838;37.184;2023-07-31T12:13:24;2.70;;;2.22;;
65533;SDS011;53640;55.838;37.184;2023-07-31T12:15:56;2.30;;;2.10;;
65533;SDS011;53640;55.838;37.184;2023-07-31T12:18:25;2.72;;;2.08;;
65533;SDS011;53640;55.838;37.184;2023-07-31T12:23:22;3.78;;;1.73;;
65533;SDS011;53640;55.838;37.184;2023-07-31T12:26:01;2.13;;;1.92;;
65533;SDS011;53640;55.838;37.184;2023-07-31T12:28:54;3.72;;;1.80;;
65533;SDS011;53640;55.838;37.184;2023-07-31T12:31:21;1.88;;;1.70;;
65533;SDS011;53640;55.838;37.184;2023-07-31T12:33:49;1.67;;;1.58;;
65533;SDS011;53640;55.838;37.184;2023-07-31T12:36:18;2.30;;;1.60;;
65533;SDS011;53640;55.838;37.184;2023-07-31T12:38:46;3.17;;;2.10;;
65533;SDS011;53640;55.838;37.184;2023-07-31T12:41:13;3.78;;;2.10;;
65533;SDS011;53640;55.838;37.184;2023-07-31T12:43:43;2.38;;;1.90;;
65533;SDS011;53640;55.838;37.184;2023-07-31T12:46:12;3.78;;;1.80;;
65533;SDS011;53640;55.838;37.184;2023-07-31T12:48:41;2.60;;;1.80;;
65533;SDS011;53640;55.838;37.184;2023-07-31T12:51:12;2.70;;;2.20;;
65533;SDS011;53640;55.838;37.184;2023-07-31T12:53:40;3.28;;;2.17;;
65533;SDS011;53640;55.838;37.184;2023-07-31T12:56:28;3.97;;;3.03;;
65533;SDS011;53640;55.838;37.184;2023-07-31T12:58:56;5.50;;;2.13;;
65533;SDS011;53640;55.838;37.184;2023-07-31T13:01:22;4.05;;;2.63;;
65533;SDS011;53640;55.838;37.184;2023-07-31T13:03:48;4.20;;;1.80;;
65533;SDS011;53640;55.838;37.184;2023-07-31T13:06:15;3.22;;;1.88;;
65533;SDS011;53640;55.838;37.184;2023-07-31T13:08:41;5.75;;;2.28;;
65533;SDS011;53640;55.838;37.184;2023-07-31T13:11:07;2.42;;;1.95;;
65533;SDS011;53640;55.838;37.184;2023-07-31T13:13:34;3.67;;;1.83;;
65533;SDS011;53640;55.838;37.184;2023-07-31T13:16:00;3.58;;;2.03;;
65533;SDS011;53640;55.838;37.184;2023-07-31T13:18:26;2.00;;;1.77;;
65533;SDS011;53640;55.838;37.184;2023-07-31T13:20:53;4.65;;;1.90;;
65533;SDS011;53640;55.838;37.184;2023-07-31T13:23:19;1.80;;;1.70;;
65533;SDS011;53640;55.838;37.184;2023-07-31T13:25:46;1.60;;;1.50;;
65533;SDS011;53640;55.838;37.184;2023-07-31T13:28:12;2.85;;;2.10;;
65533;SDS011;53640;55.838;37.184;2023-07-31T13:30:39;3.05;;;2.05;;
65533;SDS011;53640;55.838;37.184;2023-07-31T13:33:05;3.90;;;2.10;;
65533;SDS011;53640;55.838;37.184;2023-07-31T13:35:31;3.30;;;1.90;;
65533;SDS011;53640;55.838;37.184;2023-07-31T13:37:58;1.85;;;1.75;;
65533;SDS011;53640;55.838;37.184;2023-07-31T13:40:24;2.95;;;2.47;;
65533;SDS011;53640;55.838;37.184;2023-07-31T13:42:50;2.15;;;1.92;;
65533;SDS011;53640;55.838;37.184;2023-07-31T13:45:17;2.65;;;1.85;;
65533;SDS011;53640;55.838;37.184;2023-07-31T13:47:43;2.13;;;1.90;;
65533;SDS011;53640;55.838;37.184;2023-07-31T13:50:10;3.03;;;1.92;;
65533;SDS011;53640;55.838;37.184;2023-07-31T13:52:36;2.67;;;1.90;;
65533;SDS011;53640;55.838;37.184;2023-07-31T13:55:02;1.75;;;1.65;;
65533;SDS011;53640;55.838;37.184;2023-07-31T13:57:30;1.92;;;1.75;;
65533;SDS011;53640;55.838;37.184;2023-07-31T13:59:56;3.83;;;2.03;;
65533;SDS011;53640;55.838;37.184;2023-07-31T14:02:23;3.67;;;1.95;;
65533;SDS011;53640;55.838;37.184;2023-07-31T14:04:49;1.70;;;1.60;;
65533;SDS011;53640;55.838;37.184;2023-07-31T14:07:15;2.47;;;1.73;;
65533;SDS011;53640;55.838;37.184;2023-07-31T14:09:43;4.22;;;1.98;;
65533;SDS011;53640;55.838;37.184;2023-07-31T14:12:10;2.13;;;1.88;;
65533;SDS011;53640;55.838;37.184;2023-07-31T14:14:36;2.50;;;2.00;;
65533;SDS011;53640;55.838;37.184;2023-07-31T14:17:02;2.28;;;1.63;;
65533;SDS011;53640;55.838;37.184;2023-07-31T14:19:29;3.67;;;1.73;;
65533;SDS011;53640;55.838;37.184;2023-07-31T14:21:57;2.28;;;1.83;;
65533;SDS011;53640;55.838;37.184;2023-07-31T14:24:25;2.58;;;1.83;;
65533;SDS011;53640;55.838;37.184;2023-07-31T14:26:51;4.00;;;2.08;;
65533;SDS011;53640;55.838;37.184;2023-07-31T14:29:17;2.30;;;1.88;;
65533;SDS011;53640;55.838;37.184;2023-07-31T14:31:44;6.35;;;2.45;;
65533;SDS011;53640;55.838;37.184;2023-07-31T14:34:12;2.92;;;1.90;;
65533;SDS011;53640;55.838;37.184;2023-07-31T14:36:38;4.80;;;2.35;;
65533;SDS011;53640;55.838;37.184;2023-07-31T14:39:07;3.42;;;2.15;;
65533;SDS011;53640;55.838;37.184;2023-07-31T14:41:34;3.90;;;1.70;;
65533;SDS011;53640;55.838;37.184;2023-07-31T14:44:00;4.78;;;2.05;;
65533;SDS011;53640;55.838;37.184;2023-07-31T14:46:27;2.97;;;2.13;;
65533;SDS011;53640;55.838;37.184;2023-07-31T14:48:53;2.15;;;1.98;;
65533;SDS011;53640;55.838;37.184;2023-07-31T14:51:20;2.85;;;1.70;;
65533;SDS011;53640;55.838;37.184;2023-07-31T14:53:47;5.30;;;2.22;;
65533;SDS011;53640;55.838;37.184;2023-07-31T14:56:13;2.30;;;1.88;;
65533;SDS011;53640;55.838;37.184;2023-07-31T14:58:39;1.90;;;1.80;;